Time;durP1;ratioP1;P1;durP2;ratioP2;P2;SDS_P1;SDS_P2;PMS_P1;PMS_P2;Temp;Humidity;BMP_temperature;BMP_pressure;BME280_temperature;BME280_humidity;BME280_pressure;Samples;Min_cycle;Max_cycle;Signal;HPM_P1;HPM_P2
2023/06/05 00:00:07;;;;;;;;;11.75;10.50;26.60;47.10;;;;;;111216;1244;53933;-69
2023/06/05 00:02:34;;;;;;;;;11.75;10.75;26.60;47.10;;;;;;111192;1244;44094;-69
2023/06/05 00:05:02;;;;;;;;;11.00;10.00;26.60;47.20;;;;;;111240;1240;48846;-70
2023/06/05 00:07:29;;;;;;;;;11.25;10.25;26.60;47.40;;;;;;111264;1241;49343;-68
2023/06/05 00:09:56;;;;;;;;;11.00;9.75;26.60;47.20;;;;;;111244;1240;54513;-69
2023/06/05 00:12:23;;;;;;;;;11.00;10.00;26.60;47.20;;;;;;111235;1240;44430;-69
2023/06/05 00:14:50;;;;;;;;;11.00;10.00;26.60;47.20;;;;;;111255;1244;49658;-69
2023/06/05 00:17:17;;;;;;;;;13.25;11.00;26.50;47.20;;;;;;111242;1241;50305;-69
2023/06/05 00:19:44;;;;;;;;;12.00;11.00;26.60;47.20;;;;;;111256;1238;54065;-69
2023/06/05 00:22:11;;;;;;;;;15.00;12.25;26.50;47.20;;;;;;111282;1238;44794;-68
2023/06/05 00:24:39;;;;;;;;;12.00;11.00;26.50;47.20;;;;;;111263;1238;50375;-69
2023/06/05 00:27:06;;;;;;;;;13.00;11.00;26.50;47.20;;;;;;111284;1244;49389;-69
2023/06/05 00:29:33;;;;;;;;;13.00;12.00;26.50;47.60;;;;;;111200;1240;53665;-68
2023/06/05 00:32:00;;;;;;;;;11.75;10.75;26.50;47.20;;;;;;111254;1238;44210;-69
2023/06/05 00:34:27;;;;;;;;;13.00;12.00;26.50;47.40;;;;;;111269;1244;50024;-69
2023/06/05 00:36:54;;;;;;;;;13.50;12.00;26.50;47.50;;;;;;111370;1240;50500;-68
2023/06/05 00:39:21;;;;;;;;;12.00;10.00;26.50;47.30;;;;;;111241;1244;54299;-70
2023/06/05 00:41:48;;;;;;;;;12.75;11.75;26.50;47.20;;;;;;111196;1244;44928;-69
2023/06/05 00:44:17;;;;;;;;;12.50;11.75;26.50;47.30;;;;;;111215;1240;49229;-68
2023/06/05 00:46:45;;;;;;;;;12.50;11.25;26.50;47.30;;;;;;111197;1244;49790;-68
2023/06/05 00:49:12;;;;;;;;;12.00;11.00;26.50;47.30;;;;;;111272;1240;53721;-68
2023/06/05 00:51:42;;;;;;;;;12.75;11.00;26.50;47.30;;;;;;111095;1241;44989;-68
2023/06/05 00:54:10;;;;;;;;;11.67;10.67;26.50;47.30;;;;;;111215;1245;50429;-68
2023/06/05 00:56:39;;;;;;;;;10.75;9.75;26.50;47.30;;;;;;111272;1244;49595;-68
2023/06/05 00:59:06;;;;;;;;;11.75;10.75;26.50;47.30;;;;;;111211;1240;53879;-68
2023/06/05 01:01:34;;;;;;;;;10.50;10.00;26.50;47.30;;;;;;111167;1244;44167;-68
2023/06/05 01:04:01;;;;;;;;;12.25;11.00;26.40;47.30;;;;;;111176;1244;48868;-68
2023/06/05 01:06:30;;;;;;;;;13.25;10.75;26.40;47.40;;;;;;111548;1241;49610;-68
2023/06/05 01:08:57;;;;;;;;;12.00;11.00;26.40;47.50;;;;;;111211;1242;55466;-68
2023/06/05 01:11:52;;;;;;;;;11.75;10.75;26.50;47.30;;;;;;111210;1244;44521;-68
2023/06/05 01:14:23;;;;;;;;;14.00;13.00;26.40;47.20;;;;;;111284;1243;49319;-68
2023/06/05 01:16:55;;;;;;;;;12.00;10.75;26.40;47.30;;;;;;111224;1244;49365;-70
2023/06/05 01:19:24;;;;;;;;;9.67;8.67;26.40;47.20;;;;;;111425;1241;53804;-69
2023/06/05 01:21:52;;;;;;;;;12.00;11.00;26.40;47.20;;;;;;110477;1238;1165470;-69
2023/06/05 01:24:21;;;;;;;;;15.75;14.75;26.40;47.30;;;;;;111438;1240;49833;-69
2023/06/05 01:26:54;;;;;;;;;12.25;11.00;26.40;47.30;;;;;;111443;1241;49286;-67
2023/06/05 01:29:32;;;;;;;;;11.00;10.00;26.40;47.30;;;;;;111394;1238;53749;-68
2023/06/05 01:32:06;;;;;;;;;11.75;10.75;26.40;47.50;;;;;;111238;1239;45581;-69
2023/06/05 01:34:36;;;;;;;;;11.50;10.25;26.40;47.30;;;;;;111273;1243;49423;-68
2023/06/05 01:37:04;;;;;;;;;13.25;12.00;26.40;47.30;;;;;;111289;1243;49666;-69
2023/06/05 01:39:31;;;;;;;;;12.67;11.67;26.40;47.50;;;;;;111204;1240;53432;-68
2023/06/05 01:41:58;;;;;;;;;13.00;10.75;26.40;47.30;;;;;;111244;1245;45428;-68
2023/06/05 01:44:26;;;;;;;;;12.67;11.67;26.40;47.30;;;;;;111261;1243;49505;-68
2023/06/05 01:46:53;;;;;;;;;13.75;11.75;26.40;47.50;;;;;;111260;1244;49219;-69
2023/06/05 01:49:21;;;;;;;;;13.00;10.00;26.30;47.30;;;;;;111208;1238;54576;-69
2023/06/05 01:51:48;;;;;;;;;12.67;11.67;26.30;47.30;;;;;;111233;1243;44660;-70
2023/06/05 01:54:18;;;;;;;;;13.50;12.50;26.30;47.40;;;;;;111247;1243;50123;-69
2023/06/05 01:56:47;;;;;;;;;12.00;11.00;26.30;47.40;;;;;;111234;1238;50099;-69
2023/06/05 01:59:15;;;;;;;;;14.00;11.00;26.30;47.40;;;;;;111237;1240;53903;-68
2023/06/05 02:01:44;;;;;;;;;11.00;10.00;26.30;47.30;;;;;;111275;1243;45243;-68
2023/06/05 02:04:11;;;;;;;;;12.00;10.33;26.30;47.40;;;;;;111219;1239;48992;-68
2023/06/05 02:06:44;;;;;;;;;11.00;10.00;26.30;47.40;;;;;;111307;1243;49652;-68
2023/06/05 02:09:14;;;;;;;;;11.00;10.00;26.30;47.40;;;;;;111282;1238;54622;-68
2023/06/05 02:11:45;;;;;;;;;14.00;12.00;26.30;47.40;;;;;;111485;1239;45308;-69
2023/06/05 02:14:12;;;;;;;;;12.00;11.00;26.20;47.40;;;;;;111241;1243;49238;-68
2023/06/05 02:16:40;;;;;;;;;12.00;11.00;26.20;47.40;;;;;;111232;1244;50129;-69
2023/06/05 02:19:07;;;;;;;;;11.75;10.50;26.20;47.40;;;;;;111424;1241;53315;-67
2023/06/05 02:21:35;;;;;;;;;10.25;9.25;26.20;47.40;;;;;;111290;1241;45464;-69
2023/06/05 02:24:03;;;;;;;;;13.75;10.00;26.20;47.40;;;;;;111339;1237;50481;-69
2023/06/05 02:26:30;;;;;;;;;10.33;9.67;26.20;47.40;;;;;;111257;1238;48957;-69
2023/06/05 02:28:58;;;;;;;;;12.75;11.75;26.20;47.40;;;;;;111249;1243;53369;-68
2023/06/05 02:31:25;;;;;;;;;12.50;11.00;26.20;47.60;;;;;;111421;1238;44295;-68
2023/06/05 02:33:54;;;;;;;;;11.67;10.67;26.20;47.60;;;;;;111252;1238;48988;-69
2023/06/05 02:36:23;;;;;;;;;15.50;13.75;26.20;47.40;;;;;;111330;1243;50110;-68
2023/06/05 02:38:52;;;;;;;;;12.67;11.67;26.20;47.40;;;;;;111442;1238;54721;-69
2023/06/05 02:41:21;;;;;;;;;12.00;11.33;26.20;47.40;;;;;;111315;1245;44084;-69
2023/06/05 02:43:48;;;;;;;;;12.00;11.00;26.20;47.40;;;;;;111262;1243;49137;-70
2023/06/05 02:46:15;;;;;;;;;11.50;10.50;26.20;47.90;;;;;;111441;1238;49516;-69
2023/06/05 02:48:42;;;;;;;;;14.50;11.75;26.10;47.40;;;;;;111433;1238;53745;-68
2023/06/05 02:51:10;;;;;;;;;12.75;11.75;26.10;47.30;;;;;;111245;1244;44231;-68
2023/06/05 02:53:37;;;;;;;;;12.00;10.00;26.10;47.40;;;;;;111407;1241;49463;-68
2023/06/05 02:56:05;;;;;;;;;12.50;11.25;26.10;47.40;;;;;;111414;1238;50311;-68
2023/06/05 02:58:33;;;;;;;;;10.00;9.00;26.10;47.40;;;;;;111266;1238;54457;-68
2023/06/05 03:01:01;;;;;;;;;12.00;11.00;26.10;47.40;;;;;;111241;1243;45067;-68
2023/06/05 03:03:31;;;;;;;;;14.00;13.00;26.00;47.40;;;;;;111452;1238;49710;-68
2023/06/05 03:06:04;;;;;;;;;11.75;10.75;26.00;47.40;;;;;;111272;1238;49746;-68
2023/06/05 03:08:32;;;;;;;;;13.00;11.75;26.00;47.40;;;;;;111256;1243;54637;-68
2023/06/05 03:11:00;;;;;;;;;11.75;10.50;26.00;47.40;;;;;;111279;1243;44729;-68
2023/06/05 03:13:27;;;;;;;;;12.00;11.00;26.00;47.60;;;;;;111308;1238;49851;-69
2023/06/05 03:16:00;;;;;;;;;14.00;11.75;26.00;47.40;;;;;;111243;1238;49502;-69
2023/06/05 03:18:28;;;;;;;;;12.00;11.00;26.00;47.40;;;;;;111232;1240;53313;-70
2023/06/05 03:20:56;;;;;;;;;12.75;11.25;26.00;47.60;;;;;;111396;1244;44317;-69
2023/06/05 03:23:30;;;;;;;;;11.75;10.75;26.00;47.30;;;;;;111264;1239;49460;-68
2023/06/05 03:25:57;;;;;;;;;12.33;11.00;26.00;47.40;;;;;;111231;1243;49527;-68
2023/06/05 03:28:25;;;;;;;;;11.25;10.25;26.00;47.00;;;;;;111183;1238;54801;-69
2023/06/05 03:30:52;;;;;;;;;12.75;11.50;26.00;47.40;;;;;;111228;1239;45183;-69
2023/06/05 03:33:19;;;;;;;;;14.00;13.00;26.00;47.30;;;;;;111235;1238;48749;-69
2023/06/05 03:35:46;;;;;;;;;10.75;9.50;26.00;47.40;;;;;;111229;1243;49648;-68
2023/06/05 03:38:14;;;;;;;;;12.00;10.67;26.00;47.40;;;;;;111211;1243;54270;-68
2023/06/05 03:40:41;;;;;;;;;12.75;11.75;26.00;47.60;;;;;;111426;1238;45495;-68
2023/06/05 03:43:08;;;;;;;;;13.67;11.00;25.90;47.30;;;;;;111276;1243;49710;-68
2023/06/05 03:45:37;;;;;;;;;11.67;10.67;26.00;47.40;;;;;;111422;1241;49369;-68
2023/06/05 03:48:04;;;;;;;;;11.00;10.00;26.00;47.60;;;;;;111446;1238;53247;-68
2023/06/05 03:50:33;;;;;;;;;12.00;11.00;26.00;47.40;;;;;;111259;1243;44485;-68
2023/06/05 03:53:03;;;;;;;;;11.00;10.33;26.00;47.40;;;;;;111230;1240;49075;-69
2023/06/05 03:55:40;;;;;;;;;12.75;10.75;26.00;47.40;;;;;;111401;1241;50234;-68
2023/06/05 03:58:09;;;;;;;;;14.75;12.75;25.90;47.30;;;;;;111207;1240;54053;-68
2023/06/05 04:00:36;;;;;;;;;13.75;10.75;26.00;47.40;;;;;;111259;1242;44511;-68
2023/06/05 04:03:03;;;;;;;;;11.25;10.00;26.00;47.50;;;;;;111429;1238;49315;-68
2023/06/05 04:05:31;;;;;;;;;11.75;10.75;26.00;47.30;;;;;;111313;1240;49260;-68
2023/06/05 04:07:58;;;;;;;;;12.00;11.00;26.00;47.30;;;;;;111407;1238;54003;-67
2023/06/05 04:10:25;;;;;;;;;12.00;11.00;26.00;47.30;;;;;;111310;1243;44449;-68
2023/06/05 04:12:52;;;;;;;;;11.75;10.75;26.00;47.30;;;;;;111246;1243;49930;-69
2023/06/05 04:15:19;;;;;;;;;10.50;9.50;25.90;47.30;;;;;;111443;1238;49481;-69
2023/06/05 04:17:45;;;;;;;;;12.00;10.75;25.90;47.30;;;;;;111267;1238;54618;-68
2023/06/05 04:20:14;;;;;;;;;10.00;9.00;25.90;47.30;;;;;;111323;1240;45105;-69
2023/06/05 04:22:45;;;;;;;;;13.75;12.75;25.90;47.30;;;;;;111427;1241;48827;-69
2023/06/05 04:25:13;;;;;;;;;13.25;12.25;25.90;47.30;;;;;;111481;1239;49898;-68
2023/06/05 04:27:43;;;;;;;;;12.33;10.00;25.90;47.30;;;;;;111402;1238;53785;-68
2023/06/05 04:30:11;;;;;;;;;11.50;10.50;25.90;47.30;;;;;;111445;1238;44364;-68
2023/06/05 04:32:39;;;;;;;;;10.00;9.00;25.90;47.40;;;;;;111227;1244;49131;-68
2023/06/05 04:35:09;;;;;;;;;13.50;12.50;25.90;47.30;;;;;;111465;1237;49731;-68
2023/06/05 04:37:38;;;;;;;;;14.00;11.33;25.90;47.50;;;;;;111222;1240;54296;-69
2023/06/05 04:40:09;;;;;;;;;12.75;10.00;25.90;47.30;;;;;;111259;1239;44762;-68
2023/06/05 04:42:36;;;;;;;;;10.50;9.50;25.90;47.30;;;;;;111311;1241;49411;-69
2023/06/05 04:45:07;;;;;;;;;10.75;10.00;25.90;47.20;;;;;;111332;1238;48838;-69
2023/06/05 04:47:35;;;;;;;;;11.75;10.75;25.90;47.40;;;;;;111303;1243;53609;-69
2023/06/05 04:50:04;;;;;;;;;11.33;10.00;25.90;47.40;;;;;;111356;1238;44839;-68
2023/06/05 04:52:33;;;;;;;;;14.75;12.75;25.80;47.30;;;;;;111289;1243;48914;-68
2023/06/05 04:55:02;;;;;;;;;12.75;11.75;25.90;47.40;;;;;;111242;1243;49295;-68
2023/06/05 04:57:30;;;;;;;;;12.00;11.00;25.80;47.40;;;;;;111343;1243;53833;-69
2023/06/05 04:59:57;;;;;;;;;12.50;11.50;25.80;47.80;;;;;;111234;1238;44894;-68
2023/06/05 05:02:24;;;;;;;;;10.00;9.25;25.80;47.60;;;;;;111377;1241;50102;-70
2023/06/05 05:04:51;;;;;;;;;13.67;11.33;25.80;47.40;;;;;;111252;1238;49875;-68
2023/06/05 05:07:18;;;;;;;;;10.00;9.00;25.80;47.40;;;;;;111423;1240;54266;-68
2023/06/05 05:09:46;;;;;;;;;11.00;10.00;25.80;47.40;;;;;;111221;1238;45500;-68
2023/06/05 05:12:13;;;;;;;;;12.75;11.75;25.80;47.40;;;;;;111243;1243;50775;-68
2023/06/05 05:14:40;;;;;;;;;11.00;10.00;25.80;47.50;;;;;;111253;1240;50224;-69
2023/06/05 05:17:06;;;;;;;;;11.00;9.25;25.80;47.50;;;;;;111211;1238;54568;-68
2023/06/05 05:19:34;;;;;;;;;13.00;12.00;25.70;47.40;;;;;;111181;1244;44459;-69
2023/06/05 05:22:01;;;;;;;;;13.00;11.00;25.80;47.70;;;;;;111235;1240;50359;-68
2023/06/05 05:24:28;;;;;;;;;11.00;10.00;25.70;47.40;;;;;;111267;1243;49186;-68
2023/06/05 05:26:55;;;;;;;;;11.00;9.75;25.70;47.50;;;;;;111284;1244;53303;-68
2023/06/05 05:29:22;;;;;;;;;13.00;11.00;25.80;47.50;;;;;;111110;1244;44278;-68
2023/06/05 05:31:50;;;;;;;;;12.50;11.50;25.80;47.50;;;;;;111246;1240;49548;-68
2023/06/05 05:34:17;;;;;;;;;11.33;10.00;25.80;47.70;;;;;;111232;1241;49712;-68
2023/06/05 05:36:44;;;;;;;;;11.00;10.00;25.70;47.40;;;;;;111214;1240;53504;-68
2023/06/05 05:39:11;;;;;;;;;13.00;11.00;25.80;47.50;;;;;;111274;1244;44686;-67
2023/06/05 05:41:38;;;;;;;;;11.33;10.67;25.80;47.60;;;;;;111273;1240;48857;-68
2023/06/05 05:44:06;;;;;;;;;12.50;11.25;25.80;47.40;;;;;;111276;1245;50005;-69
2023/06/05 05:46:33;;;;;;;;;10.75;9.50;25.80;47.70;;;;;;111233;1240;54261;-69
2023/06/05 05:49:00;;;;;;;;;12.75;12.00;25.80;47.70;;;;;;111273;1240;44435;-69
2023/06/05 05:51:29;;;;;;;;;11.00;10.00;25.80;47.50;;;;;;111286;1240;49143;-67
2023/06/05 05:53:56;;;;;;;;;14.00;12.75;25.80;47.60;;;;;;111254;1243;49656;-68
2023/06/05 05:56:23;;;;;;;;;10.75;9.75;25.80;47.50;;;;;;111266;1240;54136;-68
2023/06/05 05:58:52;;;;;;;;;11.00;10.00;25.80;47.50;;;;;;111210;1244;44090;-67
2023/06/05 06:01:19;;;;;;;;;11.00;10.00;25.80;47.60;;;;;;111228;1243;50300;-68
2023/06/05 06:03:46;;;;;;;;;10.75;10.00;25.90;47.50;;;;;;111220;1240;49833;-68
2023/06/05 06:06:14;;;;;;;;;13.00;11.00;25.80;47.50;;;;;;111312;1242;54291;-68
2023/06/05 06:08:43;;;;;;;;;12.00;10.75;25.80;47.50;;;;;;111221;1240;44166;-68
2023/06/05 06:11:09;;;;;;;;;10.75;9.75;25.90;47.50;;;;;;111246;1238;49605;-68
2023/06/05 06:13:36;;;;;;;;;11.00;10.00;25.90;47.50;;;;;;111256;1240;49675;-68
2023/06/05 06:16:03;;;;;;;;;13.00;11.75;25.90;47.50;;;;;;111223;1238;53318;-67
2023/06/05 06:18:30;;;;;;;;;11.25;10.25;25.90;47.60;;;;;;111227;1241;45592;-70
2023/06/05 06:20:58;;;;;;;;;12.75;11.50;25.90;47.50;;;;;;111228;1238;50354;-68
2023/06/05 06:23:25;;;;;;;;;11.00;10.00;25.80;47.50;;;;;;111289;1243;49056;-66
2023/06/05 06:25:52;;;;;;;;;10.00;8.75;25.90;47.50;;;;;;111407;1238;53494;-71
2023/06/05 06:28:19;;;;;;;;;12.00;11.00;25.80;47.50;;;;;;111289;1243;44996;-68
2023/06/05 06:30:46;;;;;;;;;12.50;11.25;25.90;47.50;;;;;;111477;1238;49530;-68
2023/06/05 06:33:13;;;;;;;;;11.00;10.00;25.90;47.60;;;;;;111230;1238;50025;-69
2023/06/05 06:35:40;;;;;;;;;11.00;10.00;25.90;47.50;;;;;;111374;1237;54109;-68
2023/06/05 06:38:07;;;;;;;;;10.75;9.75;25.90;47.60;;;;;;111421;1241;44320;-68
2023/06/05 06:40:35;;;;;;;;;12.50;11.25;25.90;47.50;;;;;;111233;1243;49638;-68
2023/06/05 06:43:02;;;;;;;;;10.25;9.50;25.90;47.50;;;;;;111253;1243;49534;-69
2023/06/05 06:45:28;;;;;;;;;11.00;10.00;25.90;47.60;;;;;;111295;1239;53706;-68
2023/06/05 06:47:55;;;;;;;;;13.00;12.00;25.90;47.80;;;;;;111411;1238;44689;-67
2023/06/05 06:50:22;;;;;;;;;12.00;11.00;25.90;47.60;;;;;;111290;1243;50310;-68
2023/06/05 06:52:50;;;;;;;;;13.50;10.50;25.90;47.50;;;;;;111440;1239;49998;-68
2023/06/05 06:55:17;;;;;;;;;11.00;10.00;25.90;47.60;;;;;;111269;1239;54467;-68
2023/06/05 06:57:44;;;;;;;;;12.00;11.00;25.90;47.60;;;;;;111433;1241;44697;-68
2023/06/05 07:00:12;;;;;;;;;10.50;9.25;25.90;47.70;;;;;;111311;1243;48751;-68
2023/06/05 07:02:40;;;;;;;;;12.25;11.25;25.90;47.70;;;;;;111423;1241;49239;-68
2023/06/05 07:05:07;;;;;;;;;10.00;9.00;25.90;47.70;;;;;;111482;1238;54082;-68
2023/06/05 07:07:34;;;;;;;;;11.50;10.50;25.90;47.50;;;;;;111266;1243;44509;-68
2023/06/05 07:10:01;;;;;;;;;11.00;10.00;26.00;47.80;;;;;;111275;1238;49352;-68
2023/06/05 07:12:28;;;;;;;;;11.00;10.00;26.00;47.80;;;;;;111214;1243;50588;-67
2023/06/05 07:14:55;;;;;;;;;11.33;10.33;26.00;47.60;;;;;;111304;1243;54275;-69
2023/06/05 07:17:22;;;;;;;;;10.25;9.00;26.00;47.60;;;;;;111156;1244;44429;-69
2023/06/05 07:19:50;;;;;;;;;10.75;9.50;26.00;47.60;;;;;;111173;1241;50035;-69
2023/06/05 07:22:17;;;;;;;;;13.50;11.50;26.00;47.80;;;;;;111348;1244;49378;-69
2023/06/05 07:24:44;;;;;;;;;11.50;10.75;26.00;47.60;;;;;;111294;1240;53414;-68
2023/06/05 07:27:11;;;;;;;;;12.75;9.50;26.00;47.80;;;;;;111204;1244;45784;-68
2023/06/05 07:29:38;;;;;;;;;11.00;10.00;26.10;47.60;;;;;;111260;1243;49784;-67
2023/06/05 07:32:08;;;;;;;;;10.00;9.00;26.10;47.60;;;;;;111243;1238;49336;-68
2023/06/05 07:34:35;;;;;;;;;10.75;9.50;26.10;47.80;;;;;;111278;1240;53457;-68
2023/06/05 07:37:02;;;;;;;;;10.25;9.00;26.10;47.70;;;;;;111302;1242;45416;-69
2023/06/05 07:39:30;;;;;;;;;9.00;8.00;26.10;47.50;;;;;;111204;1247;49790;-68
2023/06/05 07:41:57;;;;;;;;;12.00;11.00;26.20;47.60;;;;;;111214;1240;49745;-69
2023/06/05 07:44:24;;;;;;;;;10.00;9.00;26.20;47.80;;;;;;111279;1244;54072;-69
2023/06/05 07:46:51;;;;;;;;;11.00;10.00;26.20;47.60;;;;;;111132;1243;44996;-68
2023/06/05 07:49:19;;;;;;;;;12.00;10.00;26.20;47.60;;;;;;111268;1240;49938;-68
2023/06/05 07:51:48;;;;;;;;;10.00;9.00;26.20;47.50;;;;;;111217;1244;49815;-68
2023/06/05 07:54:15;;;;;;;;;10.00;9.00;26.30;47.60;;;;;;111277;1241;54582;-67
2023/06/05 07:56:43;;;;;;;;;11.00;10.00;26.30;47.60;;;;;;111297;1238;45230;-68
2023/06/05 07:59:14;;;;;;;;;10.00;9.00;26.30;47.50;;;;;;111330;1241;48944;-69
2023/06/05 08:01:42;;;;;;;;;10.75;9.75;26.30;47.70;;;;;;111287;1244;49804;-68
2023/06/05 08:04:12;;;;;;;;;10.00;9.00;26.40;47.50;;;;;;111232;1244;53285;-68
2023/06/05 08:06:39;;;;;;;;;11.00;10.00;26.40;47.50;;;;;;111275;1244;45127;-68
2023/06/05 08:09:10;;;;;;;;;12.00;11.00;26.50;47.60;;;;;;111250;1244;49239;-67
2023/06/05 08:11:38;;;;;;;;;12.25;11.00;26.50;47.80;;;;;;111260;1238;50529;-68
2023/06/05 08:14:06;;;;;;;;;11.67;10.67;26.50;47.50;;;;;;111168;1241;55248;-68
2023/06/05 08:16:33;;;;;;;;;12.00;9.75;26.50;47.50;;;;;;111294;1240;44680;-68
2023/06/05 08:19:01;;;;;;;;;10.67;9.33;26.50;47.40;;;;;;111292;1244;49492;-68
2023/06/05 08:21:28;;;;;;;;;11.00;10.00;26.50;47.40;;;;;;111288;1244;48971;-68
2023/06/05 08:23:55;;;;;;;;;11.00;10.00;26.60;47.60;;;;;;111204;1244;53681;-67
2023/06/05 08:26:22;;;;;;;;;11.00;10.00;26.60;47.40;;;;;;111313;1240;45030;-68
2023/06/05 08:28:49;;;;;;;;;11.00;10.00;26.60;47.40;;;;;;111253;1243;49386;-68
2023/06/05 08:31:16;;;;;;;;;10.67;9.00;26.70;47.40;;;;;;111273;1242;49172;-67
2023/06/05 08:33:44;;;;;;;;;11.75;9.00;26.70;47.40;;;;;;111171;1240;53562;-67
2023/06/05 08:36:11;;;;;;;;;10.75;9.75;26.70;47.40;;;;;;111289;1243;44742;-67
2023/06/05 08:38:38;;;;;;;;;10.00;9.50;26.80;47.40;;;;;;111245;1244;48908;-68
2023/06/05 08:41:10;;;;;;;;;11.00;10.00;26.80;47.60;;;;;;111274;1244;49716;-68
2023/06/05 08:43:38;;;;;;;;;11.00;10.00;26.80;47.50;;;;;;111151;1245;54093;-68
2023/06/05 08:46:06;;;;;;;;;10.00;9.00;26.90;47.70;;;;;;111363;1244;44493;-68
2023/06/05 08:48:41;;;;;;;;;10.75;9.50;26.90;47.40;;;;;;111070;1240;49695;-68
2023/06/05 08:51:15;;;;;;;;;12.00;8.50;26.90;47.30;;;;;;111012;1244;49637;-69
2023/06/05 08:53:49;;;;;;;;;10.33;9.33;27.00;47.30;;;;;;111324;1243;53489;-69
2023/06/05 08:56:17;;;;;;;;;11.00;10.00;27.00;47.30;;;;;;111343;1244;44655;-70
2023/06/05 08:58:45;;;;;;;;;11.75;10.75;27.00;47.30;;;;;;111264;1240;49664;-69
2023/06/05 09:01:11;;;;;;;;;11.75;10.75;27.00;47.20;;;;;;111229;1240;49604;-68
2023/06/05 09:03:38;;;;;;;;;11.00;10.00;27.10;46.80;;;;;;111181;1244;53708;-68
2023/06/05 09:06:06;;;;;;;;;10.00;9.00;27.10;47.30;;;;;;111145;1240;45167;-68
2023/06/05 09:08:34;;;;;;;;;13.00;11.00;27.10;47.30;;;;;;111187;1242;48732;-68
2023/06/05 09:11:26;;;;;;;;;12.00;10.75;27.20;47.30;;;;;;111267;1244;48972;-68
2023/06/05 09:13:55;;;;;;;;;11.75;10.75;27.20;47.20;;;;;;111374;1239;54701;-68
2023/06/05 09:16:42;;;;;;;;;12.50;10.00;27.20;47.20;;;;;;111301;1243;44098;-68
2023/06/05 09:19:11;;;;;;;;;11.50;9.50;27.30;47.50;;;;;;111262;1243;49184;-68
2023/06/05 09:21:38;;;;;;;;;12.00;11.25;27.30;47.20;;;;;;111237;1239;49075;-68
2023/06/05 09:24:18;;;;;;;;;11.75;10.75;27.40;47.20;;;;;;111252;1238;53640;-68
2023/06/05 09:27:00;;;;;;;;;12.00;11.00;27.40;47.10;;;;;;111535;1238;44282;-68
2023/06/05 09:29:30;;;;;;;;;10.00;9.00;27.40;47.10;;;;;;111272;1243;48919;-68
2023/06/05 09:32:01;;;;;;;;;10.25;9.00;27.50;47.10;;;;;;111257;1243;50217;-68
2023/06/05 09:34:33;;;;;;;;;10.75;9.75;27.50;47.10;;;;;;111444;1241;54443;-70
2023/06/05 09:37:03;;;;;;;;;11.50;10.50;27.50;47.10;;;;;;111279;1240;44681;-68
2023/06/05 09:39:33;;;;;;;;;11.50;10.25;27.50;47.10;;;;;;111372;1243;50096;-69
2023/06/05 09:42:00;;;;;;;;;10.00;9.00;27.50;47.00;;;;;;111284;1238;51336;-68
2023/06/05 09:44:28;;;;;;;;;11.00;10.00;27.60;47.10;;;;;;111346;1243;54761;-68
2023/06/05 09:46:58;;;;;;;;;14.25;11.00;27.60;47.10;;;;;;111424;1238;45682;-69
2023/06/05 09:49:28;;;;;;;;;10.00;8.75;27.60;47.00;;;;;;111445;1238;49614;-69
2023/06/05 09:51:56;;;;;;;;;11.33;10.33;27.60;47.00;;;;;;111283;1243;49174;-69
2023/06/05 09:54:26;;;;;;;;;13.00;11.00;27.60;47.00;;;;;;111285;1243;54004;-69
2023/06/05 09:56:57;;;;;;;;;11.00;10.00;27.70;47.00;;;;;;111289;1240;44775;-69
2023/06/05 09:59:28;;;;;;;;;12.75;11.50;27.70;47.20;;;;;;111505;1241;49199;-69
2023/06/05 10:01:56;;;;;;;;;16.00;12.00;27.70;46.90;;;;;;111341;1243;49205;-68
2023/06/05 10:04:26;;;;;;;;;12.75;11.25;27.70;47.10;;;;;;111453;1241;53853;-68
2023/06/05 10:06:57;;;;;;;;;13.00;11.75;27.70;46.90;;;;;;111288;1242;44851;-69
2023/06/05 10:09:25;;;;;;;;;13.50;11.00;27.80;46.90;;;;;;111350;1243;49693;-68
2023/06/05 10:11:52;;;;;;;;;12.75;11.00;27.80;47.10;;;;;;111422;1242;49376;-69
2023/06/05 10:14:20;;;;;;;;;15.25;12.50;27.80;46.80;;;;;;111292;1238;53509;-69
2023/06/05 10:16:52;;;;;;;;;12.00;11.00;27.80;46.80;;;;;;111257;1239;45265;-69
2023/06/05 10:19:20;;;;;;;;;9.50;8.25;27.80;46.80;;;;;;111442;1243;49380;-69
2023/06/05 10:21:48;;;;;;;;;12.00;11.00;27.80;46.80;;;;;;111404;1243;50042;-69
2023/06/05 10:24:20;;;;;;;;;11.25;10.00;27.90;46.90;;;;;;111399;1241;53255;-67
2023/06/05 10:27:12;;;;;;;;;12.25;10.00;27.90;46.90;;;;;;111309;1243;44250;-68
2023/06/05 10:29:42;;;;;;;;;11.00;10.00;27.90;46.90;;;;;;111264;1243;50703;-68
2023/06/05 10:32:28;;;;;;;;;13.00;11.00;27.90;46.80;;;;;;111433;1238;49842;-67
2023/06/05 10:35:27;;;;;;;;;12.00;11.00;27.90;46.80;;;;;;111270;1243;53482;-68
2023/06/05 10:38:11;;;;;;;;;12.75;11.75;27.90;46.30;;;;;;111259;1245;44800;-68
2023/06/05 10:40:39;;;;;;;;;12.00;10.00;28.00;46.80;;;;;;111398;1239;49286;-68
2023/06/05 10:43:31;;;;;;;;;15.25;12.00;28.00;47.00;;;;;;111319;1237;49310;-69
2023/06/05 10:46:01;;;;;;;;;37.25;31.00;28.00;47.00;;;;;;111073;1238;54035;-68
2023/06/05 10:49:07;;;;;;;;;42.25;34.00;28.00;46.50;;;;;;111290;1238;44128;-69
2023/06/05 10:51:42;;;;;;;;;35.75;30.75;28.00;47.00;;;;;;111433;1241;49716;-69
2023/06/05 10:54:15;;;;;;;;;34.00;28.50;28.00;46.60;;;;;;111440;1240;49348;-69
2023/06/05 10:56:58;;;;;;;;;41.00;32.75;28.00;46.50;;;;;;111225;1238;54655;-68
2023/06/05 10:59:26;;;;;;;;;34.75;29.00;28.00;46.30;;;;;;111333;1238;44177;-72
2023/06/05 11:02:08;;;;;;;;;37.75;29.00;28.00;46.70;;;;;;111256;1243;49203;-72
2023/06/05 11:04:47;;;;;;;;;36.00;28.33;28.00;46.60;;;;;;111101;1244;49894;-65
2023/06/05 11:07:19;;;;;;;;;31.50;28.00;28.00;46.60;;;;;;111322;1241;53799;-67
2023/06/05 11:10:05;;;;;;;;;32.00;27.67;28.00;46.70;;;;;;111355;1238;44258;-67
2023/06/05 11:12:35;;;;;;;;;26.00;24.75;28.00;46.70;;;;;;111478;1238;49247;-67
2023/06/05 11:15:03;;;;;;;;;30.00;25.00;28.00;47.20;;;;;;111094;1243;49101;-65
2023/06/05 11:17:31;;;;;;;;;30.25;28.75;28.00;46.70;;;;;;111399;1238;53581;-67
2023/06/05 11:20:09;;;;;;;;;28.67;23.33;28.10;46.70;;;;;;111272;1241;44868;-68
2023/06/05 11:22:58;;;;;;;;;29.50;27.75;28.10;46.80;;;;;;111196;1238;48966;-67
2023/06/05 11:25:26;;;;;;;;;26.00;25.00;28.10;46.70;;;;;;111161;1238;50492;-68
2023/06/05 11:27:59;;;;;;;;;29.25;27.00;28.10;46.70;;;;;;111187;1239;53764;-67
2023/06/05 11:30:31;;;;;;;;;28.75;24.00;28.10;46.80;;;;;;111312;1243;44935;-64
2023/06/05 11:33:08;;;;;;;;;23.67;22.67;28.20;46.70;;;;;;111198;1240;49732;-67
2023/06/05 11:35:36;;;;;;;;;26.75;25.75;28.20;46.70;;;;;;111269;1238;49829;-66
2023/06/05 11:38:13;;;;;;;;;30.00;22.50;28.20;46.70;;;;;;111267;1243;53678;-68
2023/06/05 11:40:41;;;;;;;;;32.00;26.75;28.20;46.80;;;;;;111388;1241;44719;-68
2023/06/05 11:43:11;;;;;;;;;28.75;26.00;28.20;46.70;;;;;;111217;1244;49634;-73
2023/06/05 11:45:40;;;;;;;;;28.00;22.50;28.20;46.70;;;;;;111686;1243;48918;-74
2023/06/05 11:48:08;;;;;;;;;26.00;21.75;28.20;46.70;;;;;;111447;1241;53471;-72
2023/06/05 11:50:36;;;;;;;;;23.00;21.00;28.30;46.70;;;;;;111389;1240;45394;-74
2023/06/05 11:53:05;;;;;;;;;22.00;20.75;28.30;46.70;;;;;;111425;1240;49405;-75
2023/06/05 11:58:25;;;;;;;;;22.00;21.00;28.30;46.80;;;;;;111447;1240;53512;-75
2023/06/05 12:01:09;;;;;;;;;21.25;20.00;28.30;46.90;;;;;;111859;1240;44956;-75
2023/06/05 12:03:36;;;;;;;;;25.67;21.33;28.40;47.20;;;;;;111505;1240;51163;-75
2023/06/05 12:06:03;;;;;;;;;31.50;27.75;28.40;46.90;;;;;;111656;1243;50023;-74
2023/06/05 12:08:33;;;;;;;;;23.25;20.50;28.40;47.50;;;;;;111541;1241;53462;-74
2023/06/05 12:11:03;;;;;;;;;28.00;23.67;28.40;47.00;;;;;;111364;1241;45093;-74
2023/06/05 12:13:47;;;;;;;;;27.00;22.25;28.40;46.90;;;;;;111514;1243;49413;-74
2023/06/05 12:16:15;;;;;;;;;22.25;20.75;28.40;47.10;;;;;;111831;1241;49567;-75
2023/06/05 12:18:43;;;;;;;;;20.00;19.00;28.40;47.10;;;;;;111323;1238;54358;-75
2023/06/05 12:21:24;;;;;;;;;26.00;22.00;28.40;47.10;;;;;;111352;1238;44905;-74
2023/06/05 12:23:52;;;;;;;;;23.33;21.33;28.30;47.10;;;;;;111327;1241;49489;-74
2023/06/05 12:26:19;;;;;;;;;22.50;19.00;28.30;47.10;;;;;;111637;1239;49219;-74
2023/06/05 12:28:46;;;;;;;;;20.50;18.25;28.30;47.20;;;;;;111295;1238;54732;-74
2023/06/05 12:31:35;;;;;;;;;27.00;22.00;28.30;47.10;;;;;;111391;1242;44753;-74